sensor_id;sensor_type;location;lat;lon;timestamp;pressure;altitude;pressure_sealevel;temperature;humidity
36386;BME280;24125;47.482;8.770;2023-02-12T00:01:35;98096.75;;;1.31;62.49
36386;BME280;24125;47.482;8.770;2023-02-12T00:04:08;98085.66;;;1.29;62.46
36386;BME280;24125;47.482;8.770;2023-02-12T00:06:41;98091.34;;;1.26;62.28
36386;BME280;24125;47.482;8.770;2023-02-12T00:09:14;98080.81;;;1.26;62.35
36386;BME280;24125;47.482;8.770;2023-02-12T00:11:47;98088.94;;;1.25;62.29
36386;BME280;24125;47.482;8.770;2023-02-12T00:14:21;98080.22;;;1.24;62.56
36386;BME280;24125;47.482;8.770;2023-02-12T00:16:54;98081.25;;;1.23;62.28
36386;BME280;24125;47.482;8.770;2023-02-12T00:19:27;98082.28;;;1.22;62.32
36386;BME280;24125;47.482;8.770;2023-02-12T00:22:00;98081.72;;;1.20;62.41
36386;BME280;24125;47.482;8.770;2023-02-12T00:24:33;98083.53;;;1.20;62.62
36386;BME280;24125;47.482;8.770;2023-02-12T00:27:06;98081.94;;;1.19;62.66
36386;BME280;24125;47.482;8.770;2023-02-12T00:29:40;98078.50;;;1.18;62.43
36386;BME280;24125;47.482;8.770;2023-02-12T00:32:13;98084.78;;;1.17;62.66
36386;BME280;24125;47.482;8.770;2023-02-12T00:34:50;98081.75;;;1.13;62.89
36386;BME280;24125;47.482;8.770;2023-02-12T00:37:23;98080.53;;;1.16;62.70
36386;BME280;24125;47.482;8.770;2023-02-12T00:39:56;98086.81;;;1.15;62.98
36386;BME280;24125;47.482;8.770;2023-02-12T00:42:29;98087.63;;;1.16;62.81
36386;BME280;24125;47.482;8.770;2023-02-12T00:45:04;98096.31;;;1.16;62.72
36386;BME280;24125;47.482;8.770;2023-02-12T00:47:37;98104.19;;;1.16;62.88
36386;BME280;24125;47.482;8.770;2023-02-12T00:50:10;98101.78;;;1.14;62.64
36386;BME280;24125;47.482;8.770;2023-02-12T00:52:43;98101.19;;;1.12;62.70
36386;BME280;24125;47.482;8.770;2023-02-12T00:55:16;98099.63;;;1.11;63.20
36386;BME280;24125;47.482;8.770;2023-02-12T00:57:49;98095.94;;;1.12;63.01
36386;BME280;24125;47.482;8.770;2023-02-12T01:00:24;98083.59;;;1.13;63.25
36386;BME280;24125;47.482;8.770;2023-02-12T01:02:57;98085.41;;;1.12;63.38
36386;BME280;24125;47.482;8.770;2023-02-12T01:05:30;98093.31;;;1.12;62.78
36386;BME280;24125;47.482;8.770;2023-02-12T01:08:04;98096.75;;;1.13;63.28
36386;BME280;24125;47.482;8.770;2023-02-12T01:10:37;98090.09;;;1.10;62.77
36386;BME280;24125;47.482;8.770;2023-02-12T01:13:11;98090.66;;;1.12;63.31
36386;BME280;24125;47.482;8.770;2023-02-12T01:15:46;98082.78;;;1.12;63.21
36386;BME280;24125;47.482;8.770;2023-02-12T01:18:19;98085.88;;;1.09;63.22
36386;BME280;24125;47.482;8.770;2023-02-12T01:20:52;98083.22;;;1.09;63.04
36386;BME280;24125;47.482;8.770;2023-02-12T01:23:25;98082.44;;;1.09;62.93
36386;BME280;24125;47.482;8.770;2023-02-12T01:25:59;98088.72;;;1.08;62.94
36386;BME280;24125;47.482;8.770;2023-02-12T01:28:32;98087.09;;;1.07;62.84
36386;BME280;24125;47.482;8.770;2023-02-12T01:31:11;98087.91;;;1.07;63.04
36386;BME280;24125;47.482;8.770;2023-02-12T01:33:46;98089.50;;;1.08;62.87
36386;BME280;24125;47.482;8.770;2023-02-12T01:36:20;98078.41;;;1.06;62.93
36386;BME280;24125;47.482;8.770;2023-02-12T01:38:54;98081.84;;;1.07;62.85
36386;BME280;24125;47.482;8.770;2023-02-12T01:41:30;98090.53;;;1.07;62.73
36386;BME280;24125;47.482;8.770;2023-02-12T01:44:09;98083.66;;;1.06;63.00
36386;BME280;24125;47.482;8.770;2023-02-12T01:46:45;98089.72;;;1.07;62.58
36386;BME280;24125;47.482;8.770;2023-02-12T01:49:21;98089.94;;;1.05;62.63
36386;BME280;24125;47.482;8.770;2023-02-12T01:51:59;98079.63;;;1.04;62.60
36386;BME280;24125;47.482;8.770;2023-02-12T01:54:34;98072.78;;;1.03;63.00
36386;BME280;24125;47.482;8.770;2023-02-12T01:57:11;98073.00;;;1.01;63.01
36386;BME280;24125;47.482;8.770;2023-02-12T01:59:48;98074.81;;;1.01;62.98
36386;BME280;24125;47.482;8.770;2023-02-12T02:02:24;98073.22;;;1.00;62.93
36386;BME280;24125;47.482;8.770;2023-02-12T02:04:59;98070.00;;;0.98;63.07
36386;BME280;24125;47.482;8.770;2023-02-12T02:07:33;98059.13;;;0.94;63.07
36386;BME280;24125;47.482;8.770;2023-02-12T02:10:08;98065.19;;;0.95;62.89
36386;BME280;24125;47.482;8.770;2023-02-12T02:12:41;98062.75;;;0.93;62.90
36386;BME280;24125;47.482;8.770;2023-02-12T02:15:32;98060.56;;;0.90;62.92
36386;BME280;24125;47.482;8.770;2023-02-12T02:18:08;98055.31;;;0.90;63.29
36386;BME280;24125;47.482;8.770;2023-02-12T02:24:30;98058.59;;;0.86;63.21
36386;BME280;24125;47.482;8.770;2023-02-12T02:27:14;98059.81;;;0.83;62.82
36386;BME280;24125;47.482;8.770;2023-02-12T02:33:18;98065.50;;;0.80;63.13
36386;BME280;24125;47.482;8.770;2023-02-12T02:36:03;98057.25;;;0.77;62.85
36386;BME280;24125;47.482;8.770;2023-02-12T02:38:41;98055.88;;;0.74;63.04
36386;BME280;24125;47.482;8.770;2023-02-12T02:41:19;98053.44;;;0.72;63.21
36386;BME280;24125;47.482;8.770;2023-02-12T02:43:57;98056.28;;;0.71;63.15
36386;BME280;24125;47.482;8.770;2023-02-12T02:46:33;98048.41;;;0.71;63.09
36386;BME280;24125;47.482;8.770;2023-02-12T02:49:15;98051.25;;;0.69;63.30
36386;BME280;24125;47.482;8.770;2023-02-12T02:51:53;98050.69;;;0.67;62.97
36386;BME280;24125;47.482;8.770;2023-02-12T02:54:30;98062.56;;;0.70;63.01
36386;BME280;24125;47.482;8.770;2023-02-12T02:57:07;98055.72;;;0.69;62.72
36386;BME280;24125;47.482;8.770;2023-02-12T02:59:46;98058.56;;;0.67;63.21
36386;BME280;24125;47.482;8.770;2023-02-12T03:02:24;98050.06;;;0.65;62.95
36386;BME280;24125;47.482;8.770;2023-02-12T03:05:03;98060.59;;;0.65;63.25
36386;BME280;24125;47.482;8.770;2023-02-12T03:07:40;98051.31;;;0.63;62.88
36386;BME280;24125;47.482;8.770;2023-02-12T03:10:17;98059.41;;;0.61;63.33
36386;BME280;24125;47.482;8.770;2023-02-12T03:12:54;98062.03;;;0.61;62.86
36386;BME280;24125;47.482;8.770;2023-02-12T03:15:33;98061.22;;;0.61;63.37
36386;BME280;24125;47.482;8.770;2023-02-12T03:18:09;98056.22;;;0.59;63.17
36386;BME280;24125;47.482;8.770;2023-02-12T03:20:47;98059.63;;;0.60;63.30
36386;BME280;24125;47.482;8.770;2023-02-12T03:23:26;98060.66;;;0.59;63.12
36386;BME280;24125;47.482;8.770;2023-02-12T03:26:03;98058.25;;;0.57;63.34
36386;BME280;24125;47.482;8.770;2023-02-12T03:28:38;98052.59;;;0.54;63.31
36386;BME280;24125;47.482;8.770;2023-02-12T03:31:19;98055.81;;;0.56;63.49
36386;BME280;24125;47.482;8.770;2023-02-12T03:34:04;98064.72;;;0.55;63.16
36386;BME280;24125;47.482;8.770;2023-02-12T03:36:46;98053.03;;;0.51;63.17
36386;BME280;24125;47.482;8.770;2023-02-12T03:39:28;98048.59;;;0.51;63.07
36386;BME280;24125;47.482;8.770;2023-02-12T03:42:08;98054.28;;;0.48;62.96
36386;BME280;24125;47.482;8.770;2023-02-12T03:44:48;98051.03;;;0.46;63.04
36386;BME280;24125;47.482;8.770;2023-02-12T03:47:25;98044.97;;;0.46;63.22
36386;BME280;24125;47.482;8.770;2023-02-12T03:50:06;98043.81;;;0.42;63.45
36386;BME280;24125;47.482;8.770;2023-02-12T03:52:42;98049.06;;;0.42;63.24
36386;BME280;24125;47.482;8.770;2023-02-12T03:55:16;98041.81;;;0.37;63.10
36386;BME280;24125;47.482;8.770;2023-02-12T03:57:52;98050.50;;;0.37;63.34
36386;BME280;24125;47.482;8.770;2023-02-12T04:00:26;98059.41;;;0.36;63.17
36386;BME280;24125;47.482;8.770;2023-02-12T04:02:59;98050.38;;;0.32;63.30
36386;BME280;24125;47.482;8.770;2023-02-12T04:05:32;98043.50;;;0.31;62.93
36386;BME280;24125;47.482;8.770;2023-02-12T04:08:08;98054.00;;;0.31;62.83
36386;BME280;24125;47.482;8.770;2023-02-12T04:10:50;98050.78;;;0.29;63.49
36386;BME280;24125;47.482;8.770;2023-02-12T04:13:28;98048.56;;;0.26;63.32
36386;BME280;24125;47.482;8.770;2023-02-12T04:16:16;98058.06;;;0.27;63.68
36386;BME280;24125;47.482;8.770;2023-02-12T04:18:52;98054.28;;;0.23;63.44
36386;BME280;24125;47.482;8.770;2023-02-12T04:21:39;98056.69;;;0.25;63.64
36386;BME280;24125;47.482;8.770;2023-02-12T04:24:18;98068.41;;;0.22;63.13
36386;BME280;24125;47.482;8.770;2023-02-12T04:27:01;98083.97;;;0.24;63.49
36386;BME280;24125;47.482;8.770;2023-02-12T04:29:41;98076.28;;;0.22;63.52
36386;BME280;24125;47.482;8.770;2023-02-12T04:32:25;98073.47;;;0.24;63.41
36386;BME280;24125;47.482;8.770;2023-02-12T04:35:04;98081.75;;;0.21;63.19
36386;BME280;24125;47.482;8.770;2023-02-12T04:37:42;98077.53;;;0.20;62.91
36386;BME280;24125;47.482;8.770;2023-02-12T04:40:19;98081.97;;;0.19;63.21
36386;BME280;24125;47.482;8.770;2023-02-12T04:42:53;98076.16;;;0.17;63.27
36386;BME280;24125;47.482;8.770;2023-02-12T04:45:28;98082.41;;;0.16;63.19
36386;BME280;24125;47.482;8.770;2023-02-12T04:48:03;98081.59;;;0.16;63.34
36386;BME280;24125;47.482;8.770;2023-02-12T04:50:38;98078.38;;;0.14;63.40
36386;BME280;24125;47.482;8.770;2023-02-12T04:53:12;98087.88;;;0.15;63.30
36386;BME280;24125;47.482;8.770;2023-02-12T04:55:46;98091.31;;;0.15;63.20
36386;BME280;24125;47.482;8.770;2023-02-12T04:58:21;98087.25;;;0.13;63.49
36386;BME280;24125;47.482;8.770;2023-02-12T05:00:57;98092.53;;;0.13;63.27
36386;BME280;24125;47.482;8.770;2023-02-12T05:03:30;98083.22;;;0.10;63.53
36386;BME280;24125;47.482;8.770;2023-02-12T05:06:04;98084.03;;;0.11;63.33
36386;BME280;24125;47.482;8.770;2023-02-12T05:08:37;98084.84;;;0.11;63.32
36386;BME280;24125;47.482;8.770;2023-02-12T05:11:12;98077.78;;;0.12;63.53
36386;BME280;24125;47.482;8.770;2023-02-12T05:13:47;98082.44;;;0.10;63.52
36386;BME280;24125;47.482;8.770;2023-02-12T05:16:21;98086.66;;;0.11;63.75
36386;BME280;24125;47.482;8.770;2023-02-12T05:18:54;98072.97;;;0.09;63.49
36386;BME280;24125;47.482;8.770;2023-02-12T05:21:27;98073.53;;;0.11;63.65
36386;BME280;24125;47.482;8.770;2023-02-12T05:24:00;98065.88;;;0.09;63.71
36386;BME280;24125;47.482;8.770;2023-02-12T05:26:34;98069.91;;;0.12;64.03
36386;BME280;24125;47.482;8.770;2023-02-12T05:29:08;98073.53;;;0.11;63.58
36386;BME280;24125;47.482;8.770;2023-02-12T05:31:40;98074.13;;;0.13;63.62
36386;BME280;24125;47.482;8.770;2023-02-12T05:34:14;98067.06;;;0.13;63.86
36386;BME280;24125;47.482;8.770;2023-02-12T05:36:47;98065.03;;;0.15;63.93
36386;BME280;24125;47.482;8.770;2023-02-12T05:39:19;98063.22;;;0.16;63.86
36386;BME280;24125;47.482;8.770;2023-02-12T05:41:54;98059.34;;;0.18;63.69
36386;BME280;24125;47.482;8.770;2023-02-12T05:44:27;98070.09;;;0.17;63.79
36386;BME280;24125;47.482;8.770;2023-02-12T05:47:00;98057.75;;;0.17;63.89
36386;BME280;24125;47.482;8.770;2023-02-12T05:49:33;98061.16;;;0.18;63.62
36386;BME280;24125;47.482;8.770;2023-02-12T05:52:06;98057.75;;;0.17;63.64
36386;BME280;24125;47.482;8.770;2023-02-12T05:54:39;98071.66;;;0.18;63.57
36386;BME280;24125;47.482;8.770;2023-02-12T05:57:13;98069.03;;;0.18;63.72
36386;BME280;24125;47.482;8.770;2023-02-12T05:59:47;98061.16;;;0.18;63.49
36386;BME280;24125;47.482;8.770;2023-02-12T06:02:19;98062.19;;;0.17;63.54
36386;BME280;24125;47.482;8.770;2023-02-12T06:04:52;98056.94;;;0.17;63.61
36386;BME280;24125;47.482;8.770;2023-02-12T06:07:25;98055.34;;;0.16;63.92
36386;BME280;24125;47.482;8.770;2023-02-12T06:09:58;98056.16;;;0.16;63.64
36386;BME280;24125;47.482;8.770;2023-02-12T06:12:33;98051.91;;;0.15;63.91
36386;BME280;24125;47.482;8.770;2023-02-12T06:15:06;98058.97;;;0.15;63.66
36386;BME280;24125;47.482;8.770;2023-02-12T06:17:40;98066.66;;;0.16;63.77
36386;BME280;24125;47.482;8.770;2023-02-12T06:20:12;98054.31;;;0.17;63.50
36386;BME280;24125;47.482;8.770;2023-02-12T06:22:45;98058.78;;;0.16;63.85
36386;BME280;24125;47.482;8.770;2023-02-12T06:25:19;98055.91;;;0.18;63.90
36386;BME280;24125;47.482;8.770;2023-02-12T06:27:53;98061.97;;;0.18;63.95
36386;BME280;24125;47.482;8.770;2023-02-12T06:30:26;98060.94;;;0.19;63.67
36386;BME280;24125;47.482;8.770;2023-02-12T06:32:59;98060.75;;;0.21;64.03
36386;BME280;24125;47.482;8.770;2023-02-12T06:35:34;98063.16;;;0.22;63.66
36386;BME280;24125;47.482;8.770;2023-02-12T06:38:07;98056.91;;;0.23;63.86
36386;BME280;24125;47.482;8.770;2023-02-12T06:40:40;98058.31;;;0.26;63.89
36386;BME280;24125;47.482;8.770;2023-02-12T06:43:14;98060.47;;;0.29;64.13
36386;BME280;24125;47.482;8.770;2023-02-12T06:45:47;98057.66;;;0.30;63.67
36386;BME280;24125;47.482;8.770;2023-02-12T06:48:20;98056.41;;;0.33;63.89
36386;BME280;24125;47.482;8.770;2023-02-12T06:50:53;98056.22;;;0.34;64.12
36386;BME280;24125;47.482;8.770;2023-02-12T06:53:26;98054.16;;;0.36;64.00
36386;BME280;24125;47.482;8.770;2023-02-12T06:55:59;98063.22;;;0.41;63.87
36386;BME280;24125;47.482;8.770;2023-02-12T06:58:34;98067.25;;;0.43;63.96
36386;BME280;24125;47.482;8.770;2023-02-12T07:01:07;98074.69;;;0.46;63.71
36386;BME280;24125;47.482;8.770;2023-02-12T07:03:47;98075.09;;;0.50;63.82
36386;BME280;24125;47.482;8.770;2023-02-12T07:06:21;98072.25;;;0.51;64.17
36386;BME280;24125;47.482;8.770;2023-02-12T07:08:55;98073.81;;;0.52;63.81
36386;BME280;24125;47.482;8.770;2023-02-12T07:11:30;98075.22;;;0.55;63.97
36386;BME280;24125;47.482;8.770;2023-02-12T07:14:13;98069.34;;;0.59;63.96
36386;BME280;24125;47.482;8.770;2023-02-12T07:16:47;98071.75;;;0.61;64.23
36386;BME280;24125;47.482;8.770;2023-02-12T07:19:20;98077.59;;;0.63;63.84
36386;BME280;24125;47.482;8.770;2023-02-12T07:21:53;98081.41;;;0.67;64.17
36386;BME280;24125;47.482;8.770;2023-02-12T07:24:26;98085.41;;;0.69;63.96
36386;BME280;24125;47.482;8.770;2023-02-12T07:26:59;98075.06;;;0.74;64.03
36386;BME280;24125;47.482;8.770;2023-02-12T07:29:33;98076.03;;;0.80;63.99
36386;BME280;24125;47.482;8.770;2023-02-12T07:32:06;98072.53;;;0.86;64.17
36386;BME280;24125;47.482;8.770;2023-02-12T07:34:39;98084.81;;;0.92;64.37
36386;BME280;24125;47.482;8.770;2023-02-12T07:37:12;98087.16;;;1.00;64.49
36386;BME280;24125;47.482;8.770;2023-02-12T07:39:45;98088.91;;;1.06;64.74
36386;BME280;24125;47.482;8.770;2023-02-12T07:42:18;98087.03;;;1.13;64.64
36386;BME280;24125;47.482;8.770;2023-02-12T07:44:53;98090.97;;;1.23;64.69
36386;BME280;24125;47.482;8.770;2023-02-12T07:47:26;98084.63;;;1.30;64.82
36386;BME280;24125;47.482;8.770;2023-02-12T07:49:58;98089.63;;;1.38;64.60
36386;BME280;24125;47.482;8.770;2023-02-12T07:52:31;98085.88;;;1.46;65.00
36386;BME280;24125;47.482;8.770;2023-02-12T07:55:05;98093.25;;;1.56;65.12
36386;BME280;24125;47.482;8.770;2023-02-12T07:57:38;98087.44;;;1.65;65.24
36386;BME280;24125;47.482;8.770;2023-02-12T08:00:14;98080.63;;;1.76;64.96
36386;BME280;24125;47.482;8.770;2023-02-12T08:02:50;98073.81;;;1.86;64.93
36386;BME280;24125;47.482;8.770;2023-02-12T08:05:24;98075.91;;;1.96;64.92
36386;BME280;24125;47.482;8.770;2023-02-12T08:07:57;98076.19;;;2.06;64.87
36386;BME280;24125;47.482;8.770;2023-02-12T08:10:30;98082.50;;;2.17;65.23
36386;BME280;24125;47.482;8.770;2023-02-12T08:13:03;98084.59;;;2.26;65.41
36386;BME280;24125;47.482;8.770;2023-02-12T08:15:37;98073.06;;;2.39;65.36
36386;BME280;24125;47.482;8.770;2023-02-12T08:18:10;98081.44;;;2.48;64.83
36386;BME280;24125;47.482;8.770;2023-02-12T08:20:43;98074.34;;;2.60;64.95
36386;BME280;24125;47.482;8.770;2023-02-12T08:23:16;98083.28;;;2.71;64.77
36386;BME280;24125;47.482;8.770;2023-02-12T08:25:49;98080.91;;;2.81;64.80
36386;BME280;24125;47.482;8.770;2023-02-12T08:28:22;98088.81;;;2.92;64.68
36386;BME280;24125;47.482;8.770;2023-02-12T08:31:01;98075.59;;;3.04;64.67
36386;BME280;24125;47.482;8.770;2023-02-12T08:33:34;98078.69;;;3.13;64.73
36386;BME280;24125;47.482;8.770;2023-02-12T08:36:08;98077.66;;;3.25;64.75
36386;BME280;24125;47.482;8.770;2023-02-12T08:38:42;98082.13;;;3.36;64.80
36386;BME280;24125;47.482;8.770;2023-02-12T08:41:18;98074.97;;;3.49;64.99
36386;BME280;24125;47.482;8.770;2023-02-12T08:43:53;98076.78;;;3.60;65.36
36386;BME280;24125;47.482;8.770;2023-02-12T08:46:29;98081.78;;;3.73;65.63
36386;BME280;24125;47.482;8.770;2023-02-12T08:49:04;98089.47;;;3.86;65.25
36386;BME280;24125;47.482;8.770;2023-02-12T08:51:40;98072.50;;;3.99;65.35
36386;BME280;24125;47.482;8.770;2023-02-12T08:54:15;98067.75;;;4.12;65.46
36386;BME280;24125;47.482;8.770;2023-02-12T08:56:49;98071.91;;;4.25;65.51
36386;BME280;24125;47.482;8.770;2023-02-12T08:59:21;98066.56;;;4.37;65.52
36386;BME280;24125;47.482;8.770;2023-02-12T09:01:56;98064.97;;;4.52;65.55
36386;BME280;24125;47.482;8.770;2023-02-12T09:04:31;98057.53;;;4.66;65.60
36386;BME280;24125;47.482;8.770;2023-02-12T09:07:04;98064.91;;;4.81;65.65
36386;BME280;24125;47.482;8.770;2023-02-12T09:09:41;98054.75;;;4.94;65.70
36386;BME280;24125;47.482;8.770;2023-02-12T09:12:14;98052.59;;;5.08;65.77
36386;BME280;24125;47.482;8.770;2023-02-12T09:14:47;98051.97;;;5.23;66.10
36386;BME280;24125;47.482;8.770;2023-02-12T09:17:21;98053.22;;;5.37;66.07
36386;BME280;24125;47.482;8.770;2023-02-12T09:19:58;98047.31;;;5.52;66.15
36386;BME280;24125;47.482;8.770;2023-02-12T09:22:32;98043.00;;;5.67;65.74
36386;BME280;24125;47.482;8.770;2023-02-12T09:25:08;98050.31;;;5.82;65.95
36386;BME280;24125;47.482;8.770;2023-02-12T09:27:41;98037.22;;;5.97;65.82
36386;BME280;24125;47.482;8.770;2023-02-12T09:30:15;98047.22;;;6.12;65.10
36386;BME280;24125;47.482;8.770;2023-02-12T09:32:49;98045.50;;;6.28;65.55
36386;BME280;24125;47.482;8.770;2023-02-12T09:35:22;98041.59;;;6.40;65.03
36386;BME280;24125;47.482;8.770;2023-02-12T09:37:55;98051.56;;;6.55;65.17
36386;BME280;24125;47.482;8.770;2023-02-12T09:40:32;98042.34;;;6.68;65.07
36386;BME280;24125;47.482;8.770;2023-02-12T09:43:15;98052.31;;;6.82;64.26
36386;BME280;24125;47.482;8.770;2023-02-12T09:45:50;98033.50;;;6.89;64.97
36386;BME280;24125;47.482;8.770;2023-02-12T09:48:37;98037.03;;;7.05;64.11
36386;BME280;24125;47.482;8.770;2023-02-12T09:51:13;98038.16;;;7.14;63.69
36386;BME280;24125;47.482;8.770;2023-02-12T09:53:48;98031.28;;;7.23;64.16
36386;BME280;24125;47.482;8.770;2023-02-12T09:56:21;98043.56;;;7.34;63.51
36386;BME280;24125;47.482;8.770;2023-02-12T09:58:58;98041.47;;;7.41;63.40
36386;BME280;24125;47.482;8.770;2023-02-12T10:01:33;98040.19;;;7.49;63.29
36386;BME280;24125;47.482;8.770;2023-02-12T10:04:08;98035.97;;;7.58;63.67
36386;BME280;24125;47.482;8.770;2023-02-12T10:06:48;98032.00;;;7.66;62.75
36386;BME280;24125;47.482;8.770;2023-02-12T10:09:38;98028.03;;;7.73;62.85
36386;BME280;24125;47.482;8.770;2023-02-12T10:12:20;98020.59;;;7.80;63.06
36386;BME280;24125;47.482;8.770;2023-02-12T10:15:14;98029.66;;;7.89;63.27
36386;BME280;24125;47.482;8.770;2023-02-12T10:17:56;98029.41;;;7.96;62.51
36386;BME280;24125;47.482;8.770;2023-02-12T10:20:49;98023.31;;;8.06;62.70
36386;BME280;24125;47.482;8.770;2023-02-12T10:23:44;98019.88;;;8.10;62.23
36386;BME280;24125;47.482;8.770;2023-02-12T10:26:24;98026.00;;;8.16;62.67
36386;BME280;24125;47.482;8.770;2023-02-12T10:29:08;98027.31;;;8.23;61.86
36386;BME280;24125;47.482;8.770;2023-02-12T10:31:45;98022.81;;;8.29;61.82
36386;BME280;24125;47.482;8.770;2023-02-12T10:34:22;98028.16;;;8.34;62.22
36386;BME280;24125;47.482;8.770;2023-02-12T10:37:02;98021.78;;;8.40;61.97
36386;BME280;24125;47.482;8.770;2023-02-12T10:39:40;98013.00;;;8.45;61.65
36386;BME280;24125;47.482;8.770;2023-02-12T10:42:16;98005.81;;;8.50;61.90
36386;BME280;24125;47.482;8.770;2023-02-12T10:44:51;98004.47;;;8.53;62.16
36386;BME280;24125;47.482;8.770;2023-02-12T10:47:24;98001.53;;;8.59;62.10
36386;BME280;24125;47.482;8.770;2023-02-12T10:50:00;98010.06;;;8.66;61.34
36386;BME280;24125;47.482;8.770;2023-02-12T10:52:40;97999.91;;;8.74;61.50
36386;BME280;24125;47.482;8.770;2023-02-12T10:55:25;97993.00;;;8.78;61.32
36386;BME280;24125;47.482;8.770;2023-02-12T10:57:59;97998.03;;;8.84;61.39
36386;BME280;24125;47.482;8.770;2023-02-12T11:00:34;97999.13;;;8.88;61.17
36386;BME280;24125;47.482;8.770;2023-02-12T11:03:19;97984.97;;;8.93;61.17
36386;BME280;24125;47.482;8.770;2023-02-12T11:05:52;97986.31;;;8.95;61.22
36386;BME280;24125;47.482;8.770;2023-02-12T11:08:33;97988.41;;;9.03;60.94
36386;BME280;24125;47.482;8.770;2023-02-12T11:11:09;97992.41;;;9.06;60.98
36386;BME280;24125;47.482;8.770;2023-02-12T11:13:45;97973.19;;;9.09;61.08
36386;BME280;24125;47.482;8.770;2023-02-12T11:16:28;97974.00;;;9.15;61.17
36386;BME280;24125;47.482;8.770;2023-02-12T11:19:02;97963.09;;;9.16;61.74
36386;BME280;24125;47.482;8.770;2023-02-12T11:21:36;97968.13;;;9.23;60.76
36386;BME280;24125;47.482;8.770;2023-02-12T11:24:29;97962.47;;;9.29;60.68
36386;BME280;24125;47.482;8.770;2023-02-12T11:27:26;97967.28;;;9.32;60.95
36386;BME280;24125;47.482;8.770;2023-02-12T11:30:13;97968.31;;;9.36;60.77
36386;BME280;24125;47.482;8.770;2023-02-12T11:32:46;97961.91;;;9.37;60.66
36386;BME280;24125;47.482;8.770;2023-02-12T11:35:23;97959.25;;;9.42;60.54
36386;BME280;24125;47.482;8.770;2023-02-12T11:37:59;97952.53;;;9.45;60.50
36386;BME280;24125;47.482;8.770;2023-02-12T11:40:34;97958.13;;;9.49;60.54
36386;BME280;24125;47.482;8.770;2023-02-12T11:43:15;97945.84;;;9.53;60.35
36386;BME280;24125;47.482;8.770;2023-02-12T11:45:52;97952.22;;;9.57;60.58
36386;BME280;24125;47.482;8.770;2023-02-12T11:48:29;97946.34;;;9.60;60.43
36386;BME280;24125;47.482;8.770;2023-02-12T11:51:07;97943.13;;;9.63;60.21
36386;BME280;24125;47.482;8.770;2023-02-12T11:53:42;97939.91;;;9.66;60.79
36386;BME280;24125;47.482;8.770;2023-02-12T11:56:21;97944.66;;;9.69;60.13
36386;BME280;24125;47.482;8.770;2023-02-12T11:59:10;97935.59;;;9.75;60.23
36386;BME280;24125;47.482;8.770;2023-02-12T12:01:44;97931.06;;;9.75;60.41
36386;BME280;24125;47.482;8.770;2023-02-12T12:04:20;97933.66;;;9.80;60.40
36386;BME280;24125;47.482;8.770;2023-02-12T12:06:57;97935.78;;;9.83;60.02
36386;BME280;24125;47.482;8.770;2023-02-12T12:09:38;97942.69;;;9.90;60.70
36386;BME280;24125;47.482;8.770;2023-02-12T12:12:17;97939.97;;;9.95;60.13
36386;BME280;24125;47.482;8.770;2023-02-12T12:14:54;97929.81;;;9.97;60.19
36386;BME280;24125;47.482;8.770;2023-02-12T12:17:51;97932.47;;;10.02;60.03
36386;BME280;24125;47.482;8.770;2023-02-12T12:20:48;97914.81;;;10.06;60.26
36386;BME280;24125;47.482;8.770;2023-02-12T12:23:27;97922.78;;;10.11;60.27
36386;BME280;24125;47.482;8.770;2023-02-12T12:26:05;97912.34;;;10.14;59.92
36386;BME280;24125;47.482;8.770;2023-02-12T12:28:44;97913.41;;;10.18;59.76
36386;BME280;24125;47.482;8.770;2023-02-12T12:31:21;97903.75;;;10.23;60.00
36386;BME280;24125;47.482;8.770;2023-02-12T12:34:03;97910.41;;;10.25;59.87
36386;BME280;24125;47.482;8.770;2023-02-12T12:39:50;97908.72;;;10.34;59.98
36386;BME280;24125;47.482;8.770;2023-02-12T12:42:56;97912.72;;;10.37;59.23
36386;BME280;24125;47.482;8.770;2023-02-12T12:46:07;97897.44;;;10.42;59.21
36386;BME280;24125;47.482;8.770;2023-02-12T12:49:05;97880.28;;;10.48;59.31
36386;BME280;24125;47.482;8.770;2023-02-12T12:51:57;97885.59;;;10.53;59.45
36386;BME280;24125;47.482;8.770;2023-02-12T12:54:49;97870.03;;;10.55;59.79
36386;BME280;24125;47.482;8.770;2023-02-12T12:57:36;97878.81;;;10.61;59.61
36386;BME280;24125;47.482;8.770;2023-02-12T13:00:23;97875.06;;;10.62;59.96
36386;BME280;24125;47.482;8.770;2023-02-12T13:03:30;97867.56;;;10.64;59.28
36386;BME280;24125;47.482;8.770;2023-02-12T13:06:40;97867.78;;;10.68;59.76
36386;BME280;24125;47.482;8.770;2023-02-12T13:12:47;97878.72;;;10.71;59.54
36386;BME280;24125;47.482;8.770;2023-02-12T13:15:32;97876.25;;;10.75;59.65
36386;BME280;24125;47.482;8.770;2023-02-12T13:18:22;97870.63;;;10.76;59.73
36386;BME280;24125;47.482;8.770;2023-02-12T13:21:05;97869.28;;;10.79;59.62
36386;BME280;24125;47.482;8.770;2023-02-12T13:23:45;97874.34;;;10.80;59.95
36386;BME280;24125;47.482;8.770;2023-02-12T13:26:25;97874.53;;;10.84;59.66
36386;BME280;24125;47.482;8.770;2023-02-12T13:29:05;97866.19;;;10.90;59.46
36386;BME280;24125;47.482;8.770;2023-02-12T13:31:46;97867.50;;;10.93;59.19
36386;BME280;24125;47.482;8.770;2023-02-12T13:34:21;97869.59;;;10.96;59.74
36386;BME280;24125;47.482;8.770;2023-02-12T13:36:59;97859.91;;;11.00;59.32
36386;BME280;24125;47.482;8.770;2023-02-12T13:39:36;97867.09;;;11.05;58.91
36386;BME280;24125;47.482;8.770;2023-02-12T13:42:22;97870.47;;;11.10;59.25
36386;BME280;24125;47.482;8.770;2023-02-12T13:45:14;97876.84;;;11.14;59.03
36386;BME280;24125;47.482;8.770;2023-02-12T13:47:57;97874.09;;;11.19;59.29
36386;BME280;24125;47.482;8.770;2023-02-12T13:50:39;97869.47;;;11.25;58.67
36386;BME280;24125;47.482;8.770;2023-02-12T13:53:20;97875.06;;;11.28;58.65
36386;BME280;24125;47.482;8.770;2023-02-12T13:56:04;97869.94;;;11.32;58.64
36386;BME280;24125;47.482;8.770;2023-02-12T13:58:46;97883.78;;;11.34;59.45
36386;BME280;24125;47.482;8.770;2023-02-12T14:01:39;97877.88;;;11.37;58.49
36386;BME280;24125;47.482;8.770;2023-02-12T14:04:29;97869.56;;;11.39;59.05
36386;BME280;24125;47.482;8.770;2023-02-12T14:07:05;97864.44;;;11.42;58.53
36386;BME280;24125;47.482;8.770;2023-02-12T14:09:44;97868.69;;;11.43;59.02
36386;BME280;24125;47.482;8.770;2023-02-12T14:12:29;97869.72;;;11.47;58.51
36386;BME280;24125;47.482;8.770;2023-02-12T14:15:06;97854.47;;;11.48;58.78
36386;BME280;24125;47.482;8.770;2023-02-12T14:17:48;97863.78;;;11.50;58.83